Diaz, Arkansas
Current Conditions -  °F | °C
As of 5:56 PM on Wednesday 28 Jan 2015 (Local Time) from KM19 Reporting Station
Clear Clear  
Wind Chill: 52°   Ceiling: Unl
Heat Index: 52°   Visibility: 10mi
Dew Point: 40°   Wind: 13mph
Humidity: 63%   Direction: 170°S
Pressure: 30.07"   Gusts: NA
Location:  35.64°N, 91.27°W
Report Text: KM19 282356Z AUTO 17011KT 10SM CLR 11/04 A3007 RMK AO2 56023 T01110044 10144 20105 SLP184
Loading
Personal Weather Stations






























Interactive Weather Map New forecast layout! Learn more

10-Day Weather Forecast

Advertisements
Track Severe Weather on mobile